Time;durP1;ratioP1;P1;durP2;ratioP2;P2;SDS_P1;SDS_P2;PMS_P1;PMS_P2;Temp;Humidity;BMP_temperature;BMP_pressure;BME280_temperature;BME280_humidity;BME280_pressure;Samples;Min_cycle;Max_cycle;Signal;HPM_P1;HPM_P2
2022/09/02 00:02:16;;;;;;;;;;;;;;;15.67;66.61;100806.34;4993052;28;20021;-70
2022/09/02 00:05:19;;;;;;;;;;;;;;;15.63;66.78;100800.38;4992544;28;20025;-72
2022/09/02 00:08:22;;;;;;;;;;;;;;;15.52;66.48;100803.78;4991349;28;20032;-71
2022/09/02 00:11:28;;;;;;;;;;;;;;;15.40;67.00;100799.34;4992055;28;19960;-70
2022/09/02 00:14:33;;;;;;;;;;;;;;;15.44;67.37;100803.44;4992149;28;19929;-71
2022/09/02 00:17:37;;;;;;;;;;;;;;;15.36;67.72;100797.88;4992087;28;19976;-70
2022/09/02 00:20:41;;;;;;;;;;;;;;;15.37;67.47;100804.81;4992769;28;20073;-70
2022/09/02 00:23:44;;;;;;;;;;;;;;;15.30;67.35;100800.91;4992681;28;20037;-70
2022/09/02 00:26:48;;;;;;;;;;;;;;;15.33;67.16;100803.34;4992229;28;20542;-70
2022/09/02 00:29:52;;;;;;;;;;;;;;;15.28;66.91;100800.16;4991771;28;19944;-70
2022/09/02 00:32:55;;;;;;;;;;;;;;;15.10;67.95;100797.84;4992096;28;19924;-69
2022/09/02 00:35:59;;;;;;;;;;;;;;;15.09;68.08;100790.00;4992045;28;19945;-69
2022/09/02 00:39:03;;;;;;;;;;;;;;;15.06;67.87;100785.81;4992301;28;20020;-69
2022/09/02 00:42:06;;;;;;;;;;;;;;;15.07;67.69;100787.50;4992349;28;19925;-70
2022/09/02 00:45:10;;;;;;;;;;;;;;;14.91;68.31;100786.00;4991058;28;19929;-69
2022/09/02 00:48:13;;;;;;;;;;;;;;;14.68;69.65;100795.38;4991664;28;19937;-70
2022/09/02 00:51:16;;;;;;;;;;;;;;;14.86;68.75;100794.19;4991531;28;19925;-70
2022/09/02 00:54:22;;;;;;;;;;;;;;;14.77;69.07;100789.53;4991308;28;19971;-70
2022/09/02 00:57:29;;;;;;;;;;;;;;;14.87;68.54;100796.72;4991777;28;19924;-70
2022/09/02 01:00:36;;;;;;;;;;;;;;;14.94;68.24;100786.63;4991397;28;20359;-70
2022/09/02 01:03:40;;;;;;;;;;;;;;;14.86;68.64;100783.66;4991641;28;20031;-69
2022/09/02 01:06:44;;;;;;;;;;;;;;;14.82;68.95;100787.44;4990899;28;19925;-70
2022/09/02 01:09:47;;;;;;;;;;;;;;;14.89;68.76;100786.09;4991348;28;19973;-70
2022/09/02 01:12:55;;;;;;;;;;;;;;;14.89;68.46;100784.28;4990014;28;20405;-70
2022/09/02 01:16:03;;;;;;;;;;;;;;;14.68;69.64;100790.13;4991056;28;19932;-70
2022/09/02 01:19:09;;;;;;;;;;;;;;;14.81;68.88;100786.59;4991091;28;19929;-70
2022/09/02 01:22:16;;;;;;;;;;;;;;;14.60;69.39;100788.00;4990998;28;20535;-70
2022/09/02 01:25:21;;;;;;;;;;;;;;;14.70;69.10;100788.25;4990586;28;19948;-70
2022/09/02 01:28:25;;;;;;;;;;;;;;;14.76;68.90;100788.69;4990757;28;20008;-71
2022/09/02 01:31:28;;;;;;;;;;;;;;;14.75;69.00;100787.00;4990880;28;20389;-71
2022/09/02 01:34:31;;;;;;;;;;;;;;;14.77;68.93;100784.25;4991079;28;19949;-70
2022/09/02 01:37:35;;;;;;;;;;;;;;;14.72;68.98;100778.47;4991113;28;20641;-71
2022/09/02 01:40:39;;;;;;;;;;;;;;;14.68;68.95;100782.22;4990479;28;20020;-70
2022/09/02 01:43:42;;;;;;;;;;;;;;;14.67;69.09;100778.75;4990328;28;20355;-71
2022/09/02 01:46:45;;;;;;;;;;;;;;;14.55;69.57;100782.19;4990801;28;19925;-70
2022/09/02 01:49:49;;;;;;;;;;;;;;;14.58;69.34;100779.34;4989652;28;19925;-70
2022/09/02 01:52:53;;;;;;;;;;;;;;;14.54;69.10;100772.59;4990998;28;19925;-70
2022/09/02 01:55:56;;;;;;;;;;;;;;;14.54;68.79;100778.69;4989682;28;19937;-70
2022/09/02 01:59:01;;;;;;;;;;;;;;;14.33;69.44;100772.19;4989483;28;19972;-70
2022/09/02 02:02:04;;;;;;;;;;;;;;;14.31;69.72;100771.44;4977928;28;20011;-70
2022/09/02 02:05:09;;;;;;;;;;;;;;;14.31;69.75;100767.00;4978153;28;19984;-70
2022/09/02 02:08:15;;;;;;;;;;;;;;;14.36;69.18;100777.25;4989160;28;19925;-71
2022/09/02 02:11:19;;;;;;;;;;;;;;;14.37;68.67;100782.41;4990293;28;19967;-71
2022/09/02 02:14:25;;;;;;;;;;;;;;;14.31;68.80;100781.94;4990251;28;20396;-71
2022/09/02 02:17:29;;;;;;;;;;;;;;;14.29;68.67;100783.81;4989307;28;19944;-71
2022/09/02 02:20:33;;;;;;;;;;;;;;;14.15;68.85;100782.06;4990414;28;20393;-70
2022/09/02 02:23:35;;;;;;;;;;;;;;;13.99;69.74;100787.44;4990170;28;19996;-70
2022/09/02 02:26:39;;;;;;;;;;;;;;;14.02;70.19;100786.41;4989887;28;20029;-70
2022/09/02 02:29:44;;;;;;;;;;;;;;;13.99;69.99;100787.44;4988835;28;19924;-70
2022/09/02 02:32:47;;;;;;;;;;;;;;;13.91;70.02;100787.06;4990164;28;19924;-70
2022/09/02 02:35:54;;;;;;;;;;;;;;;13.90;70.04;100778.34;4988345;28;20021;-70
2022/09/02 02:38:58;;;;;;;;;;;;;;;13.91;69.83;100784.44;4989665;28;19929;-70
2022/09/02 02:42:01;;;;;;;;;;;;;;;13.93;69.85;100785.19;4988586;28;19928;-70
2022/09/02 02:45:08;;;;;;;;;;;;;;;13.99;69.40;100787.44;4988648;28;19928;-70
2022/09/02 02:48:12;;;;;;;;;;;;;;;13.98;69.76;100785.78;4988665;28;20028;-70
2022/09/02 02:51:17;;;;;;;;;;;;;;;13.91;70.06;100779.19;4988487;28;19976;-71
2022/09/02 02:54:21;;;;;;;;;;;;;;;13.94;69.76;100779.84;4988834;28;19996;-70
2022/09/02 02:57:25;;;;;;;;;;;;;;;13.91;69.58;100773.91;4989807;28;19975;-70
2022/09/02 03:00:28;;;;;;;;;;;;;;;13.76;70.06;100775.75;4989479;28;19941;-70
2022/09/02 03:03:32;;;;;;;;;;;;;;;13.77;70.11;100772.16;4988848;28;19981;-70
2022/09/02 03:06:37;;;;;;;;;;;;;;;13.64;70.65;100772.06;4988444;28;19967;-70
2022/09/02 03:09:41;;;;;;;;;;;;;;;13.66;70.62;100775.47;4989319;28;19940;-70
2022/09/02 03:12:46;;;;;;;;;;;;;;;13.65;70.55;100772.91;4990184;28;19980;-70
2022/09/02 03:15:51;;;;;;;;;;;;;;;13.62;70.51;100773.09;4993637;28;20389;-70
2022/09/02 03:18:54;;;;;;;;;;;;;;;13.58;70.80;100776.84;4992776;28;19921;-70
2022/09/02 03:22:05;;;;;;;;;;;;;;;13.63;70.37;100770.38;4993528;28;19967;-70
2022/09/02 03:25:19;;;;;;;;;;;;;;;13.52;70.77;100769.34;4992392;28;19992;-71
2022/09/02 03:28:23;;;;;;;;;;;;;;;13.57;70.63;100770.75;4992399;28;20389;-70
2022/09/02 03:31:28;;;;;;;;;;;;;;;13.39;71.17;100769.25;4992644;28;19925;-71
2022/09/02 03:34:32;;;;;;;;;;;;;;;13.39;71.30;100763.97;4992484;28;19940;-71
2022/09/02 03:37:35;;;;;;;;;;;;;;;13.19;72.07;100763.38;4992112;28;20016;-71
2022/09/02 03:40:40;;;;;;;;;;;;;;;13.31;71.56;100767.09;4992778;28;19964;-71
2022/09/02 03:43:44;;;;;;;;;;;;;;;13.32;71.36;100762.66;4991572;28;19949;-71
2022/09/02 03:46:47;;;;;;;;;;;;;;;13.35;71.05;100762.50;4991963;28;19964;-72
2022/09/02 03:49:50;;;;;;;;;;;;;;;13.26;71.37;100767.34;4993470;28;19928;-70
2022/09/02 03:52:53;;;;;;;;;;;;;;;13.22;71.79;100768.44;4992397;28;19932;-70
2022/09/02 03:56:02;;;;;;;;;;;;;;;13.20;71.45;100766.81;4991758;28;19924;-71
2022/09/02 03:59:05;;;;;;;;;;;;;;;13.19;71.62;100760.75;4991093;28;20522;-70
2022/09/02 04:02:09;;;;;;;;;;;;;;;13.23;71.37;100764.88;4990498;28;19928;-71
2022/09/02 04:05:12;;;;;;;;;;;;;;;13.00;72.24;100765.38;4989848;28;19929;-71
2022/09/02 04:08:18;;;;;;;;;;;;;;;12.97;72.11;100761.16;4990244;28;19925;-71
2022/09/02 04:11:22;;;;;;;;;;;;;;;13.02;71.60;100769.63;4990532;28;19928;-70
2022/09/02 04:14:27;;;;;;;;;;;;;;;12.96;71.51;100767.34;4990769;28;19944;-70
2022/09/02 04:17:34;;;;;;;;;;;;;;;12.85;72.13;100761.03;4990340;28;19980;-71
2022/09/02 04:20:38;;;;;;;;;;;;;;;12.93;71.87;100770.16;4992208;28;19987;-70
2022/09/02 04:23:42;;;;;;;;;;;;;;;12.79;72.28;100768.34;4989540;28;20051;-71
2022/09/02 04:26:45;;;;;;;;;;;;;;;12.74;72.42;100770.38;4989674;28;19924;-71
2022/09/02 04:29:51;;;;;;;;;;;;;;;12.70;72.48;100774.09;4997468;28;20361;-71
2022/09/02 04:32:55;;;;;;;;;;;;;;;12.68;72.21;100777.75;5010848;28;19925;-69
2022/09/02 04:35:59;;;;;;;;;;;;;;;12.73;72.24;100766.06;5010160;28;20060;-68
2022/09/02 04:39:02;;;;;;;;;;;;;;;12.77;71.77;100770.19;5009845;28;19924;-68
2022/09/02 04:42:09;;;;;;;;;;;;;;;12.76;72.03;100772.88;5010674;28;19940;-68
2022/09/02 04:45:13;;;;;;;;;;;;;;;12.73;72.30;100763.44;5009167;28;19935;-69
2022/09/02 04:48:17;;;;;;;;;;;;;;;12.72;72.34;100772.22;5010105;28;19928;-69
2022/09/02 04:51:24;;;;;;;;;;;;;;;12.73;72.34;100768.69;5009237;28;20431;-70
2022/09/02 04:54:30;;;;;;;;;;;;;;;12.66;72.56;100775.19;5009738;28;19924;-70
2022/09/02 04:57:35;;;;;;;;;;;;;;;12.74;72.21;100769.53;5008861;28;19964;-68
2022/09/02 05:00:41;;;;;;;;;;;;;;;12.70;72.40;100768.00;5009590;28;20453;-68
2022/09/02 05:03:48;;;;;;;;;;;;;;;12.68;72.58;100775.97;5009477;28;19928;-68
2022/09/02 05:06:53;;;;;;;;;;;;;;;12.73;72.46;100773.94;5009644;28;19925;-68
2022/09/02 05:09:57;;;;;;;;;;;;;;;12.63;72.84;100772.75;5009401;28;20393;-69
2022/09/02 05:13:02;;;;;;;;;;;;;;;12.66;72.86;100771.72;5009479;28;19924;-69
2022/09/02 05:16:06;;;;;;;;;;;;;;;12.72;72.84;100777.47;5008580;28;20176;-68
2022/09/02 05:19:12;;;;;;;;;;;;;;;12.78;72.35;100768.41;5009049;28;19928;-69
2022/09/02 05:22:18;;;;;;;;;;;;;;;12.69;73.19;100780.25;5008167;28;19923;-69
2022/09/02 05:25:21;;;;;;;;;;;;;;;12.69;73.24;100777.63;5009345;28;19928;-68
2022/09/02 05:28:25;;;;;;;;;;;;;;;12.71;73.08;100774.94;4989364;28;19965;-68
2022/09/02 05:31:30;;;;;;;;;;;;;;;12.77;72.95;100772.81;5001636;28;20448;-68
2022/09/02 05:34:34;;;;;;;;;;;;;;;12.84;72.77;100780.34;5005060;28;19929;-67
2022/09/02 05:37:39;;;;;;;;;;;;;;;12.85;73.10;100772.34;5005453;28;19972;-68
2022/09/02 05:40:45;;;;;;;;;;;;;;;12.91;72.99;100771.16;5002653;28;20017;-68
2022/09/02 05:43:54;;;;;;;;;;;;;;;12.96;72.64;100769.97;5007670;28;20039;-68
2022/09/02 05:46:58;;;;;;;;;;;;;;;12.89;72.71;100775.66;5007685;28;20009;-68
2022/09/02 05:50:01;;;;;;;;;;;;;;;12.99;72.68;100774.19;5018288;28;19944;-70
2022/09/02 05:56:41;;;;;;;;;;;;;;;13.09;72.34;100770.09;5008420;28;19982;-70
2022/09/02 05:59:47;;;;;;;;;;;;;;;13.22;71.87;100764.97;5006172;28;20727;-70
2022/09/02 06:02:54;;;;;;;;;;;;;;;13.07;72.71;100776.38;5009207;28;19933;-69
2022/09/02 06:06:03;;;;;;;;;;;;;;;13.12;72.45;100774.34;5008537;28;21229;-69
2022/09/02 06:09:08;;;;;;;;;;;;;;;13.20;72.63;100769.47;5007567;28;19928;-70
2022/09/02 06:12:12;;;;;;;;;;;;;;;13.26;72.49;100772.59;5008270;28;19956;-72
2022/09/02 06:15:16;;;;;;;;;;;;;;;13.28;72.31;100769.06;5007092;28;19956;-72
2022/09/02 06:18:20;;;;;;;;;;;;;;;13.30;72.31;100769.78;5019029;28;19928;-72
2022/09/02 06:21:26;;;;;;;;;;;;;;;13.33;72.26;100772.22;5007632;28;19925;-72
2022/09/02 06:24:29;;;;;;;;;;;;;;;13.38;72.03;100767.56;5008168;28;20313;-70
2022/09/02 06:27:36;;;;;;;;;;;;;;;13.43;71.34;100763.72;5008052;28;20353;-71
2022/09/02 06:30:43;;;;;;;;;;;;;;;13.59;71.28;100765.41;5008554;28;20157;-71
2022/09/02 06:33:47;;;;;;;;;;;;;;;13.68;69.83;100767.47;5007249;28;20071;-70
2022/09/02 06:36:53;;;;;;;;;;;;;;;13.66;69.49;100767.56;5007249;28;19948;-70
2022/09/02 06:39:57;;;;;;;;;;;;;;;13.76;68.50;100764.38;5007074;28;20048;-73
2022/09/02 06:43:02;;;;;;;;;;;;;;;13.96;68.13;100769.22;5006727;28;19971;-71
2022/09/02 06:46:22;;;;;;;;;;;;;;;13.93;68.01;100762.38;5006724;28;20222;-71
2022/09/02 06:49:28;;;;;;;;;;;;;;;14.06;68.45;100765.09;5008230;28;19955;-71
2022/09/02 06:52:33;;;;;;;;;;;;;;;14.13;68.25;100761.13;5006747;28;19963;-72
2022/09/02 06:55:38;;;;;;;;;;;;;;;14.11;67.83;100764.81;5007149;28;20016;-71
2022/09/02 06:58:42;;;;;;;;;;;;;;;14.17;68.30;100760.00;5004315;28;20074;-71
2022/09/02 07:01:46;;;;;;;;;;;;;;;14.20;68.24;100758.97;5004885;28;19928;-71
2022/09/02 07:05:14;;;;;;;;;;;;;;;14.17;67.93;100753.91;5015617;28;19929;-71
2022/09/02 07:08:18;;;;;;;;;;;;;;;14.25;67.31;100751.63;5018836;28;19923;-70
2022/09/02 07:11:23;;;;;;;;;;;;;;;14.36;66.59;100743.06;5007806;28;20025;-71
2022/09/02 07:14:28;;;;;;;;;;;;;;;14.43;65.17;100739.06;5006565;28;20040;-71
2022/09/02 07:17:32;;;;;;;;;;;;;;;14.39;65.62;100738.44;5006772;28;19928;-70
2022/09/02 07:20:42;;;;;;;;;;;;;;;14.44;66.60;100735.50;5006192;28;19925;-70
2022/09/02 07:23:46;;;;;;;;;;;;;;;14.53;66.48;100723.56;5007295;28;19952;-70
2022/09/02 07:26:49;;;;;;;;;;;;;;;14.61;66.61;100727.38;5007700;28;19924;-71
2022/09/02 07:29:55;;;;;;;;;;;;;;;14.74;65.97;100729.19;5007097;28;19932;-71
2022/09/02 07:32:59;;;;;;;;;;;;;;;14.83;66.37;100733.84;5007048;28;20290;-70
2022/09/02 07:36:05;;;;;;;;;;;;;;;14.91;66.57;100728.06;5007496;28;19948;-70
2022/09/02 07:39:12;;;;;;;;;;;;;;;15.04;66.65;100729.78;5018913;28;20116;-71
2022/09/02 07:42:19;;;;;;;;;;;;;;;15.21;66.24;100725.13;5008294;28;20432;-70
2022/09/02 07:45:26;;;;;;;;;;;;;;;15.32;65.59;100720.84;5006573;28;19947;-71
2022/09/02 07:48:40;;;;;;;;;;;;;;;15.50;65.19;100718.69;5018506;28;19923;-70
2022/09/02 07:51:53;;;;;;;;;;;;;;;15.68;62.47;100721.03;5000398;28;19940;-70
2022/09/02 07:54:58;;;;;;;;;;;;;;;15.94;61.38;100712.09;5004798;28;19924;-68
2022/09/02 07:58:21;;;;;;;;;;;;;;;16.10;59.71;100713.66;5005360;28;19923;-69
2022/09/02 08:01:31;;;;;;;;;;;;;;;16.22;59.11;100707.47;5021719;28;20381;-69
2022/09/02 08:04:36;;;;;;;;;;;;;;;16.35;58.56;100707.44;5011179;28;19929;-69
2022/09/02 08:08:00;;;;;;;;;;;;;;;16.43;58.75;100700.63;5011026;28;20013;-70
2022/09/02 08:11:05;;;;;;;;;;;;;;;16.56;59.31;100703.22;5011204;28;19941;-72
2022/09/02 08:14:11;;;;;;;;;;;;;;;16.67;58.21;100697.13;5011552;28;19979;-71
2022/09/02 08:17:15;;;;;;;;;;;;;;;16.82;58.06;100700.44;5011332;28;20408;-72
2022/09/02 08:20:25;;;;;;;;;;;;;;;17.00;56.83;100695.53;5011335;28;19981;-71
2022/09/02 08:23:32;;;;;;;;;;;;;;;17.23;56.67;100702.56;5011633;28;20100;-72
2022/09/02 08:26:37;;;;;;;;;;;;;;;17.33;55.69;100695.59;5011145;28;20256;-73
2022/09/02 08:29:40;;;;;;;;;;;;;;;17.54;56.79;100692.22;5010629;28;20364;-72
2022/09/02 08:32:43;;;;;;;;;;;;;;;17.80;55.76;100692.81;5010251;28;19983;-71
2022/09/02 08:35:47;;;;;;;;;;;;;;;17.94;54.22;100689.09;5010614;28;19931;-77
2022/09/02 08:38:50;;;;;;;;;;;;;;;17.95;53.92;100688.13;5011104;28;19924;-76
2022/09/02 08:42:01;;;;;;;;;;;;;;;18.13;54.27;100678.69;5010876;28;19983;-71
2022/09/02 08:45:13;;;;;;;;;;;;;;;18.24;53.57;100678.63;5010973;28;20016;-71
2022/09/02 08:48:37;;;;;;;;;;;;;;;18.39;53.00;100676.53;5010331;28;19964;-71
2022/09/02 08:51:55;;;;;;;;;;;;;;;18.62;52.92;100673.78;5009378;28;20444;-77
2022/09/02 08:54:59;;;;;;;;;;;;;;;18.84;52.54;100665.75;5010990;28;19932;-69
2022/09/02 08:58:04;;;;;;;;;;;;;;;18.88;51.26;100661.88;5010844;28;19948;-71
2022/09/02 09:01:16;;;;;;;;;;;;;;;19.09;50.59;100656.56;5010279;28;19928;-76
2022/09/02 09:04:25;;;;;;;;;;;;;;;19.05;50.71;100660.44;5008669;28;20017;-71
2022/09/02 09:07:36;;;;;;;;;;;;;;;19.23;49.53;100653.53;5008851;28;20521;-71
2022/09/02 09:10:59;;;;;;;;;;;;;;;19.37;49.86;100649.69;5008686;28;20103;-71
2022/09/02 09:14:29;;;;;;;;;;;;;;;19.55;49.79;100647.22;5008409;28;20019;-82
2022/09/02 09:17:56;;;;;;;;;;;;;;;19.57;48.12;100634.69;5010316;28;19924;-74
2022/09/02 09:21:00;;;;;;;;;;;;;;;19.57;48.73;100640.00;5013936;28;20297;-74
2022/09/02 09:24:12;;;;;;;;;;;;;;;19.92;47.69;100630.75;5029007;28;19951;-73
2022/09/02 09:27:20;;;;;;;;;;;;;;;20.05;47.74;100630.47;5029094;28;19940;-75
2022/09/02 09:30:24;;;;;;;;;;;;;;;20.05;44.95;100620.69;5029530;28;19940;-81
2022/09/02 09:33:27;;;;;;;;;;;;;;;20.03;45.55;100613.84;5029066;28;19924;-72
2022/09/02 09:36:44;;;;;;;;;;;;;;;20.01;45.01;100611.34;5030143;28;19928;-72
2022/09/02 09:39:48;;;;;;;;;;;;;;;20.03;45.11;100613.84;5022719;28;19924;-71
2022/09/02 09:42:57;;;;;;;;;;;;;;;20.19;45.40;100609.63;5018203;28;19928;-74
2022/09/02 09:46:18;;;;;;;;;;;;;;;20.23;43.13;100606.69;5013225;28;19932;-72
2022/09/02 09:49:25;;;;;;;;;;;;;;;20.34;41.74;100601.25;5012759;28;20047;-75
2022/09/02 09:52:29;;;;;;;;;;;;;;;20.54;40.41;100592.31;5011181;28;19924;-74
2022/09/02 09:55:32;;;;;;;;;;;;;;;20.62;41.12;100588.94;5020702;28;20468;-73
2022/09/02 09:58:41;;;;;;;;;;;;;;;20.91;38.77;100607.47;5015744;28;19967;-75
2022/09/02 10:06:30;;;;;;;;;;;;;;;21.07;37.39;100582.91;5028710;28;19975;-74
2022/09/02 10:09:34;;;;;;;;;;;;;;;21.12;38.60;100592.13;5018589;28;19925;-74
2022/09/02 10:12:38;;;;;;;;;;;;;;;21.23;35.70;100587.59;5009084;28;19956;-74
2022/09/02 10:15:54;;;;;;;;;;;;;;;21.31;35.63;100590.34;5009088;28;19976;-75
2022/09/02 10:19:16;;;;;;;;;;;;;;;21.33;35.71;100588.38;5012974;28;20072;-74
2022/09/02 10:22:19;;;;;;;;;;;;;;;21.31;36.09;100590.34;5015250;28;19925;-74
2022/09/02 10:25:41;;;;;;;;;;;;;;;21.33;34.67;100583.06;5013791;28;19928;-77
2022/09/02 10:28:44;;;;;;;;;;;;;;;21.40;35.69;100591.31;5017246;28;20371;-75
2022/09/02 10:32:20;;;;;;;;;;;;;;;21.54;34.09;100578.34;5016378;28;19968;-75
2022/09/02 10:35:37;;;;;;;;;;;;;;;21.56;34.47;100562.22;4965011;28;20305;-73
2022/09/02 10:38:47;;;;;;;;;;;;;;;21.58;34.66;100566.41;4988632;28;20173;-74
2022/09/02 10:41:54;;;;;;;;;;;;;;;21.87;33.19;100559.22;4988478;28;19979;-74
2022/09/02 10:45:06;;;;;;;;;;;;;;;21.97;32.60;100552.81;4988537;28;19929;-74
2022/09/02 10:48:18;;;;;;;;;;;;;;;21.97;32.32;100544.00;5003953;28;19925;-72
2022/09/02 10:51:40;;;;;;;;;;;;;;;21.98;33.46;100551.81;5009568;28;20396;-73
2022/09/02 10:54:50;;;;;;;;;;;;;;;21.95;32.97;100549.47;5008835;28;19967;-73
2022/09/02 10:57:58;;;;;;;;;;;;;;;21.91;32.74;100536.63;5008666;28;19983;-68
2022/09/02 11:01:02;;;;;;;;;;;;;;;22.20;33.39;100539.03;5007703;28;19937;-74
2022/09/02 11:04:24;;;;;;;;;;;;;;;22.08;33.89;100537.56;5008345;28;20072;-77
2022/09/02 11:07:40;;;;;;;;;;;;;;;22.22;33.18;100529.06;5008417;28;19945;-71
2022/09/02 11:10:53;;;;;;;;;;;;;;;22.10;33.31;100522.28;5008829;28;20002;-70
2022/09/02 11:14:08;;;;;;;;;;;;;;;22.09;34.30;100521.47;5009141;28;19995;-70
2022/09/02 11:17:14;;;;;;;;;;;;;;;22.20;32.48;100520.41;5007950;28;20004;-72
2022/09/02 11:20:26;;;;;;;;;;;;;;;22.15;32.90;100514.69;5007610;28;20499;-70
2022/09/02 11:23:48;;;;;;;;;;;;;;;22.25;32.96;100515.44;5006366;28;19924;-74
2022/09/02 11:27:00;;;;;;;;;;;;;;;22.37;31.23;100518.69;5007069;28;19968;-70
2022/09/02 11:30:03;;;;;;;;;;;;;;;22.28;32.62;100499.16;5021256;28;19944;-71
2022/09/02 11:33:14;;;;;;;;;;;;;;;22.47;32.82;100514.09;5027065;28;19924;-71
2022/09/02 11:36:17;;;;;;;;;;;;;;;22.47;32.81;100498.09;4990645;28;19928;-71
2022/09/02 11:39:37;;;;;;;;;;;;;;;22.46;32.65;100501.75;4990762;28;20033;-71
2022/09/02 11:43:01;;;;;;;;;;;;;;;22.30;32.47;100499.81;4991329;28;20397;-71
2022/09/02 11:46:24;;;;;;;;;;;;;;;22.18;33.23;100495.78;4990751;28;19968;-75
2022/09/02 11:49:28;;;;;;;;;;;;;;;22.42;32.44;100493.25;4991434;28;19980;-71
2022/09/02 11:52:31;;;;;;;;;;;;;;;22.59;32.15;100482.66;4990732;28;19980;-72
2022/09/02 11:55:40;;;;;;;;;;;;;;;22.55;33.55;100476.81;4990960;28;19940;-72
2022/09/02 11:58:44;;;;;;;;;;;;;;;22.82;32.87;100491.78;4990703;28;19925;-71
2022/09/02 12:01:52;;;;;;;;;;;;;;;23.11;32.49;100485.25;4990654;28;20340;-71
2022/09/02 12:05:14;;;;;;;;;;;;;;;23.22;32.84;100479.59;5001369;28;20443;-70
2022/09/02 12:08:26;;;;;;;;;;;;;;;23.31;32.54;100470.63;5009719;28;19928;-71
2022/09/02 12:11:36;;;;;;;;;;;;;;;23.16;32.88;100477.56;5010952;28;19932;-71
2022/09/02 12:14:40;;;;;;;;;;;;;;;23.19;31.26;100471.91;5011179;28;19925;-72
2022/09/02 12:17:43;;;;;;;;;;;;;;;23.39;31.51;100478.66;5011080;28;19925;-71
2022/09/02 12:20:46;;;;;;;;;;;;;;;23.15;31.74;100475.91;5010398;28;20027;-73
2022/09/02 12:23:49;;;;;;;;;;;;;;;23.39;31.06;100472.47;5010167;28;19936;-74
2022/09/02 12:26:52;;;;;;;;;;;;;;;23.61;30.14;100460.28;5010565;28;19940;-71
2022/09/02 12:29:56;;;;;;;;;;;;;;;23.96;31.04;100458.31;5010505;28;20527;-71
2022/09/02 12:33:03;;;;;;;;;;;;;;;24.32;30.40;100453.41;5010541;28;19932;-72
2022/09/02 12:36:07;;;;;;;;;;;;;;;24.50;29.31;100459.38;4992431;28;20213;-71
2022/09/02 12:39:33;;;;;;;;;;;;;;;24.45;29.11;100447.56;4989981;28;20440;-72
2022/09/02 12:42:43;;;;;;;;;;;;;;;24.91;28.53;100459.22;4989451;28;19972;-71
2022/09/02 12:45:49;;;;;;;;;;;;;;;24.75;28.83;100445.94;4991939;28;20398;-71
2022/09/02 12:49:16;;;;;;;;;;;;;;;24.81;28.13;100447.91;5009309;28;19944;-71
2022/09/02 12:52:35;;;;;;;;;;;;;;;24.41;28.64;100443.50;5009986;28;19928;-71
2022/09/02 12:55:39;;;;;;;;;;;;;;;24.32;29.37;100438.22;5009770;28;19968;-70
2022/09/02 12:58:53;;;;;;;;;;;;;;;25.96;28.06;100421.19;5010593;28;20368;-71
2022/09/02 13:01:59;;;;;;;;;;;;;;;26.32;26.69;100421.28;5010066;28;19944;-70
2022/09/02 13:05:06;;;;;;;;;;;;;;;26.58;26.01;100415.50;5010346;28;19975;-71
2022/09/02 13:08:12;;;;;;;;;;;;;;;26.53;26.34;100423.25;5009776;28;19971;-72
2022/09/02 13:11:35;;;;;;;;;;;;;;;27.10;25.10;100414.41;5009715;28;20007;-71
2022/09/02 13:14:58;;;;;;;;;;;;;;;27.54;24.65;100404.53;5010321;28;19983;-71
2022/09/02 13:18:21;;;;;;;;;;;;;;;27.78;24.65;100397.91;5009933;28;19940;-71
2022/09/02 13:21:27;;;;;;;;;;;;;;;28.46;23.70;100398.13;5010007;28;19936;-71
2022/09/02 13:24:49;;;;;;;;;;;;;;;28.50;23.77;100397.53;5010129;28;19929;-72
2022/09/02 13:28:28;;;;;;;;;;;;;;;29.32;23.17;100386.78;5009584;28;20282;-72
2022/09/02 13:31:32;;;;;;;;;;;;;;;29.63;21.89;100378.13;4951513;28;20020;-72
2022/09/02 13:34:43;;;;;;;;;;;;;;;29.86;21.46;100373.09;5009185;28;19928;-72
2022/09/02 13:37:59;;;;;;;;;;;;;;;31.30;19.85;100372.88;5019517;28;19925;-72
2022/09/02 13:41:02;;;;;;;;;;;;;;;35.05;15.71;100364.88;5009194;28;20333;-73
2022/09/02 13:44:09;;;;;;;;;;;;;;;37.59;14.20;100348.31;5008901;28;20417;-72
2022/09/02 13:47:16;;;;;;;;;;;;;;;39.81;12.38;100347.41;5008918;28;19924;-73
2022/09/02 13:50:21;;;;;;;;;;;;;;;40.02;12.32;100352.81;5009160;28;19925;-72
2022/09/02 13:53:33;;;;;;;;;;;;;;;39.33;12.48;100349.66;5009256;28;19971;-73
2022/09/02 13:56:36;;;;;;;;;;;;;;;42.84;10.07;100336.06;5008449;28;19975;-73
2022/09/02 13:59:46;;;;;;;;;;;;;;;42.73;10.17;100329.94;5009714;28;20384;-73
2022/09/02 14:02:57;;;;;;;;;;;;;;;44.83;8.79;100319.38;5009300;28;19932;-72
2022/09/02 14:06:02;;;;;;;;;;;;;;;45.34;8.41;100327.16;5008651;28;20052;-73
2022/09/02 14:09:08;;;;;;;;;;;;;;;43.41;9.78;100314.72;5009417;28;19963;-73
2022/09/02 14:12:11;;;;;;;;;;;;;;;43.35;9.30;100315.13;5009380;28;20387;-73
2022/09/02 14:15:16;;;;;;;;;;;;;;;42.27;10.39;100314.06;5009378;28;19928;-74
2022/09/02 14:18:20;;;;;;;;;;;;;;;43.62;9.18;100306.91;5009158;28;19923;-74
2022/09/02 14:21:24;;;;;;;;;;;;;;;44.17;8.95;100302.47;5008132;28;20007;-74
2022/09/02 14:24:28;;;;;;;;;;;;;;;42.80;9.67;100290.25;5008417;28;19975;-71
2022/09/02 14:27:31;;;;;;;;;;;;;;;44.09;8.87;100296.53;5008255;28;19929;-73
2022/09/02 14:30:35;;;;;;;;;;;;;;;45.53;8.71;100287.47;5008800;28;19925;-69
2022/09/02 14:33:43;;;;;;;;;;;;;;;42.48;9.78;100284.41;5008743;28;20433;-69
2022/09/02 14:37:18;;;;;;;;;;;;;;;42.26;9.23;100284.97;5008484;28;19992;-70
2022/09/02 14:40:33;;;;;;;;;;;;;;;42.87;9.14;100271.41;5006258;28;19928;-70
2022/09/02 14:43:41;;;;;;;;;;;;;;;40.11;11.00;100272.53;4989593;28;20293;-71
2022/09/02 14:46:55;;;;;;;;;;;;;;;42.09;10.36;100262.72;4989937;28;20031;-72
2022/09/02 14:49:58;;;;;;;;;;;;;;;44.26;8.97;100262.00;4989842;28;19968;-72
2022/09/02 14:53:06;;;;;;;;;;;;;;;41.46;9.80;100268.44;4989885;28;19925;-71
2022/09/02 14:56:09;;;;;;;;;;;;;;;40.88;10.84;100256.38;4989195;28;19941;-71
2022/09/02 14:59:13;;;;;;;;;;;;;;;42.09;9.42;100243.50;4989726;28;19924;-70
2022/09/02 15:02:23;;;;;;;;;;;;;;;43.53;9.40;100245.44;4988456;28;19972;-74
2022/09/02 15:05:26;;;;;;;;;;;;;;;44.33;9.05;100243.13;4989224;28;20405;-75
2022/09/02 15:08:29;;;;;;;;;;;;;;;41.31;10.47;100239.22;4988355;28;19929;-73
2022/09/02 15:11:32;;;;;;;;;;;;;;;43.26;9.71;100245.41;4989371;28;19972;-73
2022/09/02 15:14:35;;;;;;;;;;;;;;;39.58;11.42;100249.50;4989755;28;20354;-73
2022/09/02 15:17:38;;;;;;;;;;;;;;;42.40;9.72;100232.03;4988634;28;19929;-71
2022/09/02 15:20:42;;;;;;;;;;;;;;;42.69;9.73;100237.31;4988153;28;20425;-71
2022/09/02 15:23:45;;;;;;;;;;;;;;;41.93;9.97;100231.91;4987737;28;20073;-71
2022/09/02 15:26:49;;;;;;;;;;;;;;;41.94;10.65;100228.03;4988283;28;20397;-70
2022/09/02 15:29:53;;;;;;;;;;;;;;;41.04;11.16;100234.31;4988398;28;20381;-68
2022/09/02 15:32:56;;;;;;;;;;;;;;;42.33;9.96;100226.13;4988805;28;20401;-74
2022/09/02 15:36:06;;;;;;;;;;;;;;;41.82;10.14;100228.44;4989745;28;19929;-72
2022/09/02 15:39:09;;;;;;;;;;;;;;;41.69;10.46;100226.44;4989485;28;19952;-71
2022/09/02 15:42:13;;;;;;;;;;;;;;;42.28;10.25;100226.97;4989516;28;20381;-69
2022/09/02 15:45:16;;;;;;;;;;;;;;;42.16;10.22;100221.94;4988946;28;19967;-69
2022/09/02 15:48:19;;;;;;;;;;;;;;;41.32;10.75;100222.50;4988921;28;19925;-69
2022/09/02 15:51:23;;;;;;;;;;;;;;;39.62;11.50;100228.66;4989140;28;19925;-69
2022/09/02 15:54:27;;;;;;;;;;;;;;;39.65;11.76;100226.19;4989371;28;19967;-68
2022/09/02 15:57:36;;;;;;;;;;;;;;;39.21;11.86;100226.03;4992323;28;19924;-69
2022/09/02 16:00:40;;;;;;;;;;;;;;;38.93;12.17;100211.91;5008244;28;19951;-69
2022/09/02 16:03:44;;;;;;;;;;;;;;;37.35;12.85;100216.97;5008019;28;19988;-68
2022/09/02 16:06:48;;;;;;;;;;;;;;;36.95;13.38;100221.06;5007382;28;19924;-68
2022/09/02 16:09:52;;;;;;;;;;;;;;;34.57;15.82;100213.28;5007204;28;19928;-70
2022/09/02 16:12:58;;;;;;;;;;;;;;;31.92;18.56;100225.94;5018192;28;19952;-70